Latest Weather Observations for Swan Island

IDT60801

Issued at 5:05 pm EST Thursday 31 July 2014 (issued every 30 minutes, with the page automatically refreshed every 10 minutes)

About weather observations | Map of weather stations | Latest weather observations for TAS | Other Formats
Station Details ID: 092123 Name: SWAN ISLAND Lat: -40.73 Lon: 148.12 Height: 15.0 m
Data from the previous 72 hours. | See also: Recent months at Swan Island
Date/Time
EST
Temp
°C
App
Temp
°C
Dew
Point
Rel
Hum
%
Delta-T
°C
Wind Press
QNH
hPa
Press
MSL
hPa
Rain
since 9 am
mm
Dir
 
Spd
km/h
Gust
km/h
Spd
kts
Gust
kts
31/05:00pm 8.2 - - - - W 59 93 32 50 988.9 988.9 5.8
31/04:54pm 8.0 - - - - W 72 93 39 50 989.0 - 5.4
31/04:30pm 9.1 - - - - WNW 50 85 27 46 988.2 - 4.0
31/04:16pm 9.4 - - - - WNW 56 89 30 48 988.1 - 3.4
31/04:03pm 10.2 - - - - WNW 48 69 26 37 987.6 - 2.0
31/04:00pm 10.0 - - - - WNW 50 69 27 37 987.5 987.5 2.0
31/03:30pm 9.9 - - - - W 41 70 22 38 987.0 - 1.4
31/03:21pm 9.8 - - - - W 39 61 21 33 986.9 - 1.2
31/03:20pm 9.9 - - - - W 37 52 20 28 986.9 - 1.2
31/03:00pm 11.2 - - - - W 57 83 31 45 986.3 986.3 0.8
31/02:58pm 11.6 - - - - WNW 59 83 32 45 986.0 - 0.6
31/02:30pm 15.0 - - - - NNW 83 102 45 55 984.7 - 0.0
31/02:00pm 15.4 - - - - NW 74 100 40 54 985.3 985.3 0.0
31/01:30pm 15.4 - - - - NNW 70 93 38 50 985.8 - 0.0
31/01:29pm 15.4 - - - - NNW 70 93 38 50 985.8 - 0.0
31/01:00pm 15.4 - - - - NNW 67 82 36 44 986.9 986.9 0.0
31/12:47pm 15.4 - - - - NNW 67 85 36 46 987.3 - 0.0
31/12:30pm 15.4 - - - - NNW 69 83 37 45 987.7 - 0.0
31/12:00pm 15.3 - - - - NNW 70 93 38 50 988.5 988.5 0.0
31/11:53am 15.4 - - - - NNW 72 93 39 50 988.7 - 0.0
31/11:30am 15.2 - - - - NNW 72 89 39 48 989.3 - 0.0
31/11:06am 15.2 - - - - NNW 70 95 38 51 989.9 - 0.0
31/11:00am 15.0 - - - - NNW 67 85 36 46 990.2 990.2 0.0
31/10:31am 15.1 - - - - NNW 67 85 36 46 991.4 - 0.0
31/10:30am 15.0 - - - - NNW 69 85 37 46 991.4 - 0.0
31/10:01am 14.8 - - - - NNW 69 87 37 47 992.1 - 0.0
31/10:00am 14.7 - - - - NNW 70 89 38 48 992.2 992.2 0.0
31/09:30am 14.8 - - - - NNW 74 95 40 51 992.4 - 0.0
31/09:00am 14.6 - - - - NNW 74 96 40 52 993.1 993.1 3.8
31/08:30am 14.5 - - - - NNW 72 102 39 55 993.4 - 3.8
31/08:00am 14.6 - - - - NNW 74 93 40 50 993.7 993.7 3.8
31/07:51am 14.5 - - - - NNW 70 93 38 50 993.7 - 3.8
31/07:30am 14.3 - - - - NNW 67 83 36 45 994.1 - 3.8
31/07:06am 14.2 - - - - NNW 65 83 35 45 994.6 - 3.8
31/07:00am 14.2 - - - - NNW 67 83 36 45 994.6 994.6 3.8
31/06:30am 14.4 - - - - NNW 69 87 37 47 994.7 - 3.8
31/06:12am 14.2 - - - - NNW 65 83 35 45 995.1 - 3.8
31/06:00am 14.3 - - - - NW 65 78 35 42 995.2 995.2 3.8
31/05:30am 14.2 - - - - NNW 65 83 35 45 995.6 - 3.8
31/05:00am 14.1 - - - - NNW 67 87 36 47 995.9 995.9 3.8
31/04:30am 14.0 - - - - NW 67 87 36 47 996.1 - 3.8
31/04:02am 14.1 - - - - NW 61 85 33 46 996.4 - 3.8
31/04:00am 14.0 - - - - NW 61 78 33 42 996.4 996.4 3.8
31/03:30am 14.0 - - - - NW 67 93 36 50 996.8 - 3.8
31/03:21am 14.0 - - - - NW 67 93 36 50 996.7 - 3.8
31/03:00am 14.1 - - - - NNW 67 83 36 45 997.0 997.0 3.8
31/02:39am 14.2 - - - - NW 70 89 38 48 997.5 - 3.8
31/02:30am 14.1 - - - - NNW 72 89 39 48 997.2 - 3.8
31/02:12am 14.1 - - - - NNW 65 83 35 45 997.4 - 3.8
31/02:00am 14.1 - - - - NNW 67 83 36 45 997.6 997.6 3.8
31/01:33am 14.1 - - - - NNW 65 87 35 47 998.1 - 3.8
31/01:30am 14.1 - - - - NW 65 80 35 43 998.1 - 3.8
31/01:00am 14.1 - - - - NW 61 78 33 42 998.9 998.9 3.8
31/12:51am 13.9 - - - - NW 57 76 31 41 999.0 - 3.8
31/12:30am 13.9 - - - - NW 57 72 31 39 999.4 - 3.8
31/12:08am 14.0 - - - - NW 61 83 33 45 999.6 - 3.8
31/12:00am 13.9 - - - - NW 57 70 31 38 999.8 999.8 3.8
 
Date/Time
EST
Temp
°C
App
Temp
°C
Dew
Point
Rel
Hum
%
Delta-T
°C
Wind Press
QNH
hPa
Press
MSL
hPa
Rain
since 9 am
mm
Dir
 
Spd
km/h
Gust
km/h
Spd
kts
Gust
kts
30/11:30pm 13.4 - - - - NW 52 72 28 39 1000.5 - 3.8
30/11:02pm 13.3 - - - - NW 50 70 27 38 1000.6 - 3.6
30/11:00pm 13.3 - - - - NW 52 67 28 36 1000.5 1000.5 3.6
30/10:30pm 12.7 - - - - NW 56 76 30 41 1000.6 - 3.6
30/10:13pm 13.4 - - - - NW 52 80 28 43 1000.7 - 3.4
30/10:00pm 13.6 - - - - NW 54 69 29 37 1000.9 1000.9 3.2
30/09:30pm 13.3 - - - - NW 41 52 22 28 1001.3 - 3.2
30/09:05pm 13.1 - - - - NW 44 63 24 34 1001.7 - 3.2
30/09:00pm 13.1 - - - - WNW 50 63 27 34 1001.8 1001.8 3.2
30/08:30pm 13.2 - - - - NW 41 59 22 32 1001.9 - 3.0
30/08:26pm 13.3 - - - - NW 41 59 22 32 1002.2 - 3.0
30/08:00pm 13.5 - - - - NW 44 59 24 32 1002.0 1002.0 2.8
30/07:49pm 13.4 - - - - NW 44 65 24 35 1002.0 - 2.8
30/07:30pm 13.4 - - - - NW 44 59 24 32 1002.2 - 2.8
30/07:00pm 13.4 - - - - NW 46 63 25 34 1002.1 1002.1 2.8
30/06:30pm 13.1 - - - - NW 54 72 29 39 1001.9 - 2.8
30/06:00pm 13.0 - - - - NW 56 76 30 41 1001.6 1001.6 2.8
30/05:30pm 13.5 - - - - NW 44 63 24 34 1001.5 - 1.0
30/05:00pm 13.3 - - - - NW 48 67 26 36 1001.2 1001.2 1.0
30/04:30pm 13.4 - - - - NW 52 74 28 40 1001.0 - 1.0
30/04:00pm 13.8 - - - - NW 52 74 28 40 1001.1 1001.1 1.0
30/03:30pm 13.6 - - - - NW 54 74 29 40 1000.9 - 1.0
30/03:00pm 13.3 - - - - NW 48 69 26 37 1001.3 1001.3 1.0
30/02:59pm 13.4 - - - - NW 48 69 26 37 1001.3 - 1.0
30/02:30pm 13.5 - - - - NW 48 63 26 34 1001.4 - 1.0
30/02:00pm 13.7 - - - - NW 50 70 27 38 1001.7 1001.7 1.0
30/01:30pm 14.0 - - - - NW 48 70 26 38 1002.0 - 1.0
30/01:08pm 13.6 - - - - WNW 54 72 29 39 1002.2 - 1.0
30/01:00pm 13.3 - - - - NW 57 74 31 40 1002.2 1002.2 1.0
30/12:52pm 13.7 - - - - NW 50 70 27 38 1002.4 - 1.0
30/12:30pm 14.1 - - - - NW 52 70 28 38 1002.5 - 1.0
30/12:00pm 13.8 - - - - WNW 39 57 21 31 1003.0 1003.0 1.0
30/11:51am 13.9 - - - - WNW 41 59 22 32 1002.9 - 1.0
30/11:30am 12.9 - - - - WNW 44 57 24 31 1003.5 - 1.0
30/11:06am 13.0 - - - - NW 44 69 24 37 1003.8 - 0.8
30/11:00am 13.3 - - - - NW 43 57 23 31 1003.8 1003.9 0.8
30/10:30am 13.3 - - - - WNW 44 61 24 33 1004.0 - 0.8
30/10:00am 12.8 - - - - WNW 39 52 21 28 1004.0 1004.1 0.8
30/09:30am 12.4 - - - - WNW 41 56 22 30 1004.0 - 0.6
30/09:00am 12.9 - - - - NW 39 52 21 28 1004.0 1004.1 15.0
30/08:30am 12.8 - - - - NW 37 48 20 26 1003.7 - 15.0
30/08:18am 12.5 - - - - NW 39 57 21 31 1003.7 - 15.0
30/08:00am 12.5 - - - - WNW 37 54 20 29 1003.8 1003.9 15.0
30/07:43am 12.4 - - - - WNW 35 54 19 29 1004.0 - 15.0
30/07:30am 12.3 - - - - WNW 35 46 19 25 1004.2 - 15.0
30/07:00am 11.5 - - - - WNW 30 43 16 23 1004.1 1004.2 15.0
30/06:33am 12.4 - - - - WNW 37 56 20 30 1003.9 - 14.8
30/06:30am 12.4 - - - - WNW 41 57 22 31 1003.8 - 14.8
30/06:00am 12.6 - - - - WNW 41 54 22 29 1003.4 1003.4 14.8
30/05:49am 12.4 - - - - WNW 41 61 22 33 1003.1 - 14.8
30/05:30am 12.6 - - - - WNW 35 54 19 29 1003.1 - 14.8
30/05:00am 12.4 - - - - WNW 41 59 22 32 1002.6 1002.6 14.8
30/04:31am 12.6 - - - - WNW 39 59 21 32 1002.2 - 14.8
30/04:30am 12.7 - - - - WNW 39 56 21 30 1002.2 - 14.8
30/04:00am 12.7 - - - - WNW 41 65 22 35 1001.7 1001.7 14.8
30/03:30am 12.9 - - - - WNW 44 72 24 39 1001.2 - 14.8
30/03:04am 13.1 - - - - WNW 46 70 25 38 1000.8 - 14.8
30/03:00am 13.1 - - - - WNW 44 63 24 34 1000.8 1000.8 14.8
30/02:30am 13.1 - - - - W 44 69 24 37 1000.4 - 14.8
30/02:00am 13.0 - - - - WNW 50 69 27 37 1000.1 1000.1 14.8
30/01:30am 12.9 - - - - WNW 54 78 29 42 999.6 - 14.8
30/01:00am 12.8 - - - - WNW 59 80 32 43 999.0 999.0 14.8
30/12:30am 13.3 - - - - WNW 52 78 28 42 998.6 - 14.8
30/12:00am 13.4 - - - - WNW 50 76 27 41 998.6 998.6 14.8
 
Date/Time
EST
Temp
°C
App
Temp
°C
Dew
Point
Rel
Hum
%
Delta-T
°C
Wind Press
QNH
hPa
Press
MSL
hPa
Rain
since 9 am
mm
Dir
 
Spd
km/h
Gust
km/h
Spd
kts
Gust
kts
29/11:30pm 12.9 - - - - WNW 52 80 28 43 998.7 - 14.8
29/11:00pm 13.1 - - - - WNW 56 76 30 41 998.3 998.3 14.8
29/10:30pm 12.4 - - - - WNW 52 76 28 41 998.1 - 14.8
29/10:00pm 13.1 - - - - WNW 54 85 29 46 998.1 998.1 13.6
29/09:30pm 13.6 - - - - WNW 56 83 30 45 997.1 - 13.6
29/09:00pm 13.9 - - - - WNW 61 91 33 49 996.8 996.8 13.6
29/08:30pm 13.7 - - - - WNW 63 83 34 45 996.6 - 13.6
29/08:00pm 13.6 - - - - WNW 54 78 29 42 996.0 996.0 13.6
29/07:30pm 13.8 - - - - WNW 61 89 33 48 995.8 - 13.6
29/07:00pm 13.4 - - - - NW 74 98 40 53 994.6 994.6 13.6
29/06:30pm 13.2 - - - - NW 63 83 34 45 994.8 - 13.6
29/06:00pm 12.8 - - - - NW 70 102 38 55 994.6 994.6 13.4
29/05:44pm 12.6 - - - - NW 70 98 38 53 994.2 - 13.0
29/05:30pm 12.6 - - - - NW 57 80 31 43 994.5 - 10.8
29/05:16pm 12.7 - - - - NW 63 82 34 44 995.3 - 8.4
29/05:00pm 12.8 - - - - NW 65 83 35 45 994.9 994.9 7.0
29/04:30pm 13.1 - - - - NW 61 87 33 47 995.3 - 6.8
29/04:01pm 12.8 - - - - NW 69 89 37 48 995.5 - 6.8
29/04:00pm 12.8 - - - - NW 70 89 38 48 995.5 995.5 6.8
29/03:39pm 12.5 - - - - NW 67 85 36 46 995.6 - 6.6
29/03:30pm 12.4 - - - - NW 69 87 37 47 995.6 - 6.6
29/03:08pm 12.1 - - - - NW 52 76 28 41 996.5 - 6.6
29/03:00pm 12.1 - - - - NW 52 70 28 38 997.0 997.0 5.0
29/02:30pm 12.3 - - - - NW 57 76 31 41 996.5 - 1.8
29/02:00pm 13.0 - - - - NW 59 78 32 42 996.3 996.3 1.0
29/01:30pm 12.8 - - - - NW 65 91 35 49 996.3 - 1.0
29/01:00pm 13.2 - - - - NW 72 100 39 54 996.2 996.2 0.8
29/12:30pm 13.4 - - - - NW 76 98 41 53 996.3 - 0.6
29/12:00pm 12.8 - - - - NNW 63 83 34 45 997.0 997.0 0.6
29/11:30am 13.5 - - - - NNW 63 80 34 43 998.4 - 0.2
29/11:06am 13.3 - - - - NW 61 85 33 46 998.7 - 0.2
29/11:00am 13.1 - - - - NW 61 78 33 42 999.2 999.2 0.2
29/10:30am 12.8 - - - - NNW 65 83 35 45 999.6 - 0.2
29/10:17am 13.1 - - - - NNW 69 89 37 48 999.5 - 0.0
29/10:00am 13.6 - - - - NW 65 80 35 43 999.8 999.8 0.0
29/09:30am 13.6 - - - - NNW 69 91 37 49 999.8 - 0.0
29/09:02am 13.4 - - - - NNW 61 83 33 45 999.8 - 0.0
29/09:00am 13.4 - - - - NNW 61 76 33 41 999.9 999.9 19.2
29/08:32am 13.5 - - - - NNW 65 85 35 46 1000.3 - 19.2
29/08:30am 13.6 - - - - NNW 69 85 37 46 1000.3 - 19.2
29/08:04am 13.5 - - - - NNW 63 82 34 44 1000.1 - 19.2
29/08:00am 13.4 - - - - NNW 63 80 34 43 1000.2 1000.2 19.2
29/07:30am 13.3 - - - - NNW 63 78 34 42 1000.4 - 19.2
29/07:00am 13.2 - - - - NNW 59 72 32 39 1000.9 1000.9 19.2
29/06:30am 13.4 - - - - NNW 61 82 33 44 1001.2 - 19.2
29/06:26am 13.3 - - - - NNW 59 82 32 44 1001.1 - 19.2
29/06:00am 13.3 - - - - NNW 59 72 32 39 1001.3 1001.3 19.2
29/05:37am 13.0 - - - - NW 57 78 31 42 1001.5 - 19.2
29/05:30am 13.2 - - - - NW 54 70 29 38 1001.7 - 19.2
29/05:04am 13.3 - - - - NW 52 70 28 38 1001.9 - 19.2
29/05:00am 13.2 - - - - NW 52 63 28 34 1002.0 1002.0 19.2
29/04:30am 13.0 - - - - NNW 50 59 27 32 1002.2 - 19.2
29/04:00am 12.8 - - - - NW 57 70 31 38 1002.8 1002.8 19.0
29/03:30am 12.9 - - - - NW 48 61 26 33 1003.3 - 19.0
29/03:00am 12.6 - - - - NW 50 63 27 34 1003.7 1003.7 19.0
29/02:30am 12.0 - - - - NW 44 57 24 31 1004.2 - 19.0
29/02:00am 12.1 - - - - NW 46 65 25 35 1004.9 1005.0 19.0
29/01:38am 12.3 - - - - NW 52 76 28 41 1004.7 - 18.8
29/01:30am 12.2 - - - - NW 52 63 28 34 1004.9 - 18.4
29/01:15am 10.9 - - - - WNW 28 54 15 29 1005.3 - 18.0
29/01:00am 10.8 - - - - WNW 24 37 13 20 1005.4 1005.5 17.4
29/12:41am 10.3 - - - - WNW 30 50 16 27 1005.9 - 16.2
29/12:30am 10.1 - - - - WNW 32 43 17 23 1006.5 - 14.2
29/12:14am 9.7 - - - - WNW 41 59 22 32 1006.8 - 12.4
29/12:05am 12.2 - - - - WNW 44 61 24 33 1006.6 - 10.4
29/12:00am 13.2 - - - - NNW 48 57 26 31 1005.8 1005.9 10.4
 
Date/Time
EST
Temp
°C
App
Temp
°C
Dew
Point
Rel
Hum
%
Delta-T
°C
Wind Press
QNH
hPa
Press
MSL
hPa
Rain
since 9 am
mm
Dir
 
Spd
km/h
Gust
km/h
Spd
kts
Gust
kts
28/11:30pm 13.0 - - - - NNW 43 50 23 27 1005.9 - 10.4
28/11:00pm 12.2 - - - - NW 35 41 19 22 1006.3 1006.4 10.4
28/10:30pm 11.8 - - - - NNW 43 52 23 28 1006.6 - 10.4
28/10:00pm 11.7 - - - - NW 33 44 18 24 1007.3 1007.4 10.0
28/09:30pm 11.1 - - - - WNW 32 41 17 22 1007.4 - 9.6
28/09:00pm 10.7 - - - - WNW 32 46 17 25 1008.2 1008.3 9.4
28/08:39pm 11.5 - - - - W 30 50 16 27 1008.3 - 7.0
28/08:30pm 11.4 - - - - WNW 26 37 14 20 1008.0 - 5.6
28/08:00pm 10.8 - - - - WNW 24 35 13 19 1007.7 1007.8 5.2
28/07:30pm 10.2 - - - - WNW 28 43 15 23 1008.1 - 3.6
28/07:25pm 10.2 - - - - WNW 33 54 18 29 1008.1 - 3.0
28/07:17pm 10.3 - - - - W 44 54 24 29 1008.3 - 1.6
28/07:00pm 11.9 - - - - WNW 24 33 13 18 1007.6 1007.7 0.8
28/06:30pm 12.2 - - - - NW 37 50 20 27 1007.6 - 0.8
28/06:00pm 12.8 - - - - NW 33 44 18 24 1007.2 1007.3 0.0
28/05:30pm 13.0 - - - - NW 37 48 20 26 1006.9 - 0.0

Other Formats:

Comma delimited format used in spreadsheet applications
http://www.bom.gov.au/fwo/IDT60801/IDT60801.95985.axf

JavaScript Object Notation format (JSON) in row-major order
http://www.bom.gov.au/fwo/IDT60801/IDT60801.95985.json